sensor_id;sensor_type;location;lat;lon;timestamp;temperature;humidity
32334;DHT22;18810;53.040;8.850;2023-04-26T00:07:23;4.50;99.90
32334;DHT22;18810;53.040;8.850;2023-04-26T00:09:52;4.50;99.90
32334;DHT22;18810;53.040;8.850;2023-04-26T00:19:36;4.40;99.90
32334;DHT22;18810;53.040;8.850;2023-04-26T00:22:03;4.80;99.90
32334;DHT22;18810;53.040;8.850;2023-04-26T00:31:49;4.40;99.90
32334;DHT22;18810;53.040;8.850;2023-04-26T00:34:14;4.40;99.90
32334;DHT22;18810;53.040;8.850;2023-04-26T00:48:53;4.10;99.90
32334;DHT22;18810;53.040;8.850;2023-04-26T00:56:12;4.00;99.90
32334;DHT22;18810;53.040;8.850;2023-04-26T01:01:04;3.90;99.90
32334;DHT22;18810;53.040;8.850;2023-04-26T01:03:29;4.00;99.90
32334;DHT22;18810;53.040;8.850;2023-04-26T01:08:22;3.90;99.90
32334;DHT22;18810;53.040;8.850;2023-04-26T01:13:15;3.90;99.90
32334;DHT22;18810;53.040;8.850;2023-04-26T01:15:47;4.50;99.90
32334;DHT22;18810;53.040;8.850;2023-04-26T01:18:13;3.90;99.90
32334;DHT22;18810;53.040;8.850;2023-04-26T01:20:39;3.80;99.90
32334;DHT22;18810;53.040;8.850;2023-04-26T01:23:06;3.90;99.90
32334;DHT22;18810;53.040;8.850;2023-04-26T01:32:51;4.00;99.90
32334;DHT22;18810;53.040;8.850;2023-04-26T01:35:16;4.00;99.90
32334;DHT22;18810;53.040;8.850;2023-04-26T01:40:09;4.00;99.90
32334;DHT22;18810;53.040;8.850;2023-04-26T01:45:01;4.00;99.90
32334;DHT22;18810;53.040;8.850;2023-04-26T01:47:28;3.90;99.90
32334;DHT22;18810;53.040;8.850;2023-04-26T01:50:00;3.80;99.90
32334;DHT22;18810;53.040;8.850;2023-04-26T01:52:26;3.90;99.90
32334;DHT22;18810;53.040;8.850;2023-04-26T01:54:51;3.90;99.90
32334;DHT22;18810;53.040;8.850;2023-04-26T01:57:17;3.90;99.90
32334;DHT22;18810;53.040;8.850;2023-04-26T01:59:43;3.90;99.90
32334;DHT22;18810;53.040;8.850;2023-04-26T02:02:09;4.00;99.90
32334;DHT22;18810;53.040;8.850;2023-04-26T02:04:34;4.00;99.90
32334;DHT22;18810;53.040;8.850;2023-04-26T02:07:00;4.00;99.90
32334;DHT22;18810;53.040;8.850;2023-04-26T02:09:26;4.00;99.90
32334;DHT22;18810;53.040;8.850;2023-04-26T02:11:52;4.00;99.90
32334;DHT22;18810;53.040;8.850;2023-04-26T02:14:17;4.00;99.90
32334;DHT22;18810;53.040;8.850;2023-04-26T02:16:43;4.00;99.90
32334;DHT22;18810;53.040;8.850;2023-04-26T02:19:09;4.10;99.90
32334;DHT22;18810;53.040;8.850;2023-04-26T02:21:55;4.10;99.90
32334;DHT22;18810;53.040;8.850;2023-04-26T02:24:25;4.00;99.90
32334;DHT22;18810;53.040;8.850;2023-04-26T02:26:51;3.90;99.90
32334;DHT22;18810;53.040;8.850;2023-04-26T02:29:19;3.90;99.90
32334;DHT22;18810;53.040;8.850;2023-04-26T02:31:44;3.80;99.90
32334;DHT22;18810;53.040;8.850;2023-04-26T02:34:11;3.70;99.90
32334;DHT22;18810;53.040;8.850;2023-04-26T02:36:37;3.80;99.90
32334;DHT22;18810;53.040;8.850;2023-04-26T02:39:02;3.70;99.90
32334;DHT22;18810;53.040;8.850;2023-04-26T02:41:31;3.70;99.90
32334;DHT22;18810;53.040;8.850;2023-04-26T02:43:57;3.70;99.90
32334;DHT22;18810;53.040;8.850;2023-04-26T02:46:23;3.70;99.90
32334;DHT22;18810;53.040;8.850;2023-04-26T02:48:48;3.70;99.90
32334;DHT22;18810;53.040;8.850;2023-04-26T02:51:14;3.70;99.90
32334;DHT22;18810;53.040;8.850;2023-04-26T02:53:40;3.60;99.90
32334;DHT22;18810;53.040;8.850;2023-04-26T02:56:06;3.60;99.90
32334;DHT22;18810;53.040;8.850;2023-04-26T02:58:32;3.60;99.90
32334;DHT22;18810;53.040;8.850;2023-04-26T03:00:57;3.50;99.90
32334;DHT22;18810;53.040;8.850;2023-04-26T03:03:24;3.60;99.90
32334;DHT22;18810;53.040;8.850;2023-04-26T03:05:49;3.50;99.90
32334;DHT22;18810;53.040;8.850;2023-04-26T03:08:15;3.50;99.90
32334;DHT22;18810;53.040;8.850;2023-04-26T03:10:43;3.50;99.90
32334;DHT22;18810;53.040;8.850;2023-04-26T03:13:09;3.40;99.90
32334;DHT22;18810;53.040;8.850;2023-04-26T03:15:34;3.40;99.90
32334;DHT22;18810;53.040;8.850;2023-04-26T03:18:00;3.40;99.90
32334;DHT22;18810;53.040;8.850;2023-04-26T03:20:26;3.40;99.90
32334;DHT22;18810;53.040;8.850;2023-04-26T03:22:52;3.40;99.90
32334;DHT22;18810;53.040;8.850;2023-04-26T03:25:17;3.40;99.90
32334;DHT22;18810;53.040;8.850;2023-04-26T03:27:44;3.40;99.90
32334;DHT22;18810;53.040;8.850;2023-04-26T03:30:10;3.40;99.90
32334;DHT22;18810;53.040;8.850;2023-04-26T03:32:35;3.50;99.90
32334;DHT22;18810;53.040;8.850;2023-04-26T03:35:01;3.50;99.90
32334;DHT22;18810;53.040;8.850;2023-04-26T03:37:27;3.50;99.90
32334;DHT22;18810;53.040;8.850;2023-04-26T03:39:53;3.50;99.90
32334;DHT22;18810;53.040;8.850;2023-04-26T03:42:19;3.50;99.90
32334;DHT22;18810;53.040;8.850;2023-04-26T03:44:45;3.50;99.90
32334;DHT22;18810;53.040;8.850;2023-04-26T03:47:11;3.50;99.90
32334;DHT22;18810;53.040;8.850;2023-04-26T03:49:36;3.40;99.90
32334;DHT22;18810;53.040;8.850;2023-04-26T03:52:02;3.40;99.90
32334;DHT22;18810;53.040;8.850;2023-04-26T03:54:28;3.30;99.90
32334;DHT22;18810;53.040;8.850;2023-04-26T03:56:54;3.30;99.90
32334;DHT22;18810;53.040;8.850;2023-04-26T03:59:20;3.20;99.90
32334;DHT22;18810;53.040;8.850;2023-04-26T04:01:45;3.30;99.90
32334;DHT22;18810;53.040;8.850;2023-04-26T04:04:11;3.20;99.90
32334;DHT22;18810;53.040;8.850;2023-04-26T04:06:37;3.20;99.90
32334;DHT22;18810;53.040;8.850;2023-04-26T04:09:03;3.20;99.90
32334;DHT22;18810;53.040;8.850;2023-04-26T04:11:30;3.30;99.90
32334;DHT22;18810;53.040;8.850;2023-04-26T04:13:56;3.30;99.90
32334;DHT22;18810;53.040;8.850;2023-04-26T04:16:21;3.30;99.90
32334;DHT22;18810;53.040;8.850;2023-04-26T04:18:47;3.20;99.90
32334;DHT22;18810;53.040;8.850;2023-04-26T04:21:13;3.20;99.90
32334;DHT22;18810;53.040;8.850;2023-04-26T04:23:38;3.30;99.90
32334;DHT22;18810;53.040;8.850;2023-04-26T04:26:04;3.30;99.90
32334;DHT22;18810;53.040;8.850;2023-04-26T04:28:31;3.20;99.90
32334;DHT22;18810;53.040;8.850;2023-04-26T04:30:58;3.30;99.90
32334;DHT22;18810;53.040;8.850;2023-04-26T04:33:25;3.30;99.90
32334;DHT22;18810;53.040;8.850;2023-04-26T04:35:53;3.30;99.90
32334;DHT22;18810;53.040;8.850;2023-04-26T04:38:19;3.30;99.90
32334;DHT22;18810;53.040;8.850;2023-04-26T04:40:48;3.30;99.90
32334;DHT22;18810;53.040;8.850;2023-04-26T04:43:16;3.30;99.90
32334;DHT22;18810;53.040;8.850;2023-04-26T04:45:42;3.30;99.90
32334;DHT22;18810;53.040;8.850;2023-04-26T04:48:08;3.50;99.90
32334;DHT22;18810;53.040;8.850;2023-04-26T04:50:37;3.60;99.90
32334;DHT22;18810;53.040;8.850;2023-04-26T04:53:03;3.70;99.90
32334;DHT22;18810;53.040;8.850;2023-04-26T04:55:29;3.90;99.90
32334;DHT22;18810;53.040;8.850;2023-04-26T04:57:54;4.00;99.90
32334;DHT22;18810;53.040;8.850;2023-04-26T05:00:26;4.00;99.90
32334;DHT22;18810;53.040;8.850;2023-04-26T05:02:53;4.00;99.90
32334;DHT22;18810;53.040;8.850;2023-04-26T05:05:18;3.90;99.90
32334;DHT22;18810;53.040;8.850;2023-04-26T05:07:44;3.90;99.90
32334;DHT22;18810;53.040;8.850;2023-04-26T05:10:10;4.00;99.90
32334;DHT22;18810;53.040;8.850;2023-04-26T05:12:36;3.90;99.90
32334;DHT22;18810;53.040;8.850;2023-04-26T05:15:03;3.80;99.90
32334;DHT22;18810;53.040;8.850;2023-04-26T05:17:29;3.90;99.90
32334;DHT22;18810;53.040;8.850;2023-04-26T05:19:56;4.00;99.90
32334;DHT22;18810;53.040;8.850;2023-04-26T05:22:22;4.10;99.90
32334;DHT22;18810;53.040;8.850;2023-04-26T05:24:48;4.30;99.90
32334;DHT22;18810;53.040;8.850;2023-04-26T05:27:14;4.50;99.90
32334;DHT22;18810;53.040;8.850;2023-04-26T05:29:40;4.70;99.90
32334;DHT22;18810;53.040;8.850;2023-04-26T05:32:06;5.00;99.90
32334;DHT22;18810;53.040;8.850;2023-04-26T05:34:32;5.20;99.90
32334;DHT22;18810;53.040;8.850;2023-04-26T05:36:57;5.50;99.90
32334;DHT22;18810;53.040;8.850;2023-04-26T05:39:23;5.80;99.90
32334;DHT22;18810;53.040;8.850;2023-04-26T05:41:49;5.80;99.90
32334;DHT22;18810;53.040;8.850;2023-04-26T05:44:15;6.00;99.90
32334;DHT22;18810;53.040;8.850;2023-04-26T05:46:41;6.10;99.90
32334;DHT22;18810;53.040;8.850;2023-04-26T05:49:06;6.00;99.90
32334;DHT22;18810;53.040;8.850;2023-04-26T05:51:32;6.20;99.90
32334;DHT22;18810;53.040;8.850;2023-04-26T05:53:58;6.30;99.90
32334;DHT22;18810;53.040;8.850;2023-04-26T05:56:24;6.40;99.90
32334;DHT22;18810;53.040;8.850;2023-04-26T05:58:51;6.30;99.90
32334;DHT22;18810;53.040;8.850;2023-04-26T06:01:17;6.30;99.90
32334;DHT22;18810;53.040;8.850;2023-04-26T06:03:46;6.30;99.90
32334;DHT22;18810;53.040;8.850;2023-04-26T06:06:12;6.20;99.90
32334;DHT22;18810;53.040;8.850;2023-04-26T06:08:38;6.30;99.90
32334;DHT22;18810;53.040;8.850;2023-04-26T06:11:03;6.60;99.90
32334;DHT22;18810;53.040;8.850;2023-04-26T06:13:29;6.80;99.90
32334;DHT22;18810;53.040;8.850;2023-04-26T06:15:55;6.90;99.90
32334;DHT22;18810;53.040;8.850;2023-04-26T06:18:21;7.30;99.90
32334;DHT22;18810;53.040;8.850;2023-04-26T06:20:47;7.20;99.90
32334;DHT22;18810;53.040;8.850;2023-04-26T06:23:13;7.30;99.90
32334;DHT22;18810;53.040;8.850;2023-04-26T06:25:38;7.50;99.90
32334;DHT22;18810;53.040;8.850;2023-04-26T06:28:12;7.50;99.90
32334;DHT22;18810;53.040;8.850;2023-04-26T06:30:38;7.30;99.90
32334;DHT22;18810;53.040;8.850;2023-04-26T06:33:04;7.10;99.90
32334;DHT22;18810;53.040;8.850;2023-04-26T06:35:30;7.10;99.90
32334;DHT22;18810;53.040;8.850;2023-04-26T06:37:56;7.10;99.90
32334;DHT22;18810;53.040;8.850;2023-04-26T06:40:21;7.30;99.90
32334;DHT22;18810;53.040;8.850;2023-04-26T06:42:47;7.50;99.90
32334;DHT22;18810;53.040;8.850;2023-04-26T06:45:13;7.80;99.90
32334;DHT22;18810;53.040;8.850;2023-04-26T06:47:39;8.50;99.90
32334;DHT22;18810;53.040;8.850;2023-04-26T06:50:05;9.40;99.90
32334;DHT22;18810;53.040;8.850;2023-04-26T06:52:31;9.90;99.90
32334;DHT22;18810;53.040;8.850;2023-04-26T06:55:00;10.30;99.90
32334;DHT22;18810;53.040;8.850;2023-04-26T06:57:26;11.00;99.90
32334;DHT22;18810;53.040;8.850;2023-04-26T06:59:52;11.10;99.90
32334;DHT22;18810;53.040;8.850;2023-04-26T07:02:18;11.30;99.90
32334;DHT22;18810;53.040;8.850;2023-04-26T07:04:43;11.80;99.90
32334;DHT22;18810;53.040;8.850;2023-04-26T07:07:09;12.10;99.90
32334;DHT22;18810;53.040;8.850;2023-04-26T07:09:35;12.10;99.90
32334;DHT22;18810;53.040;8.850;2023-04-26T07:12:01;12.20;99.90
32334;DHT22;18810;53.040;8.850;2023-04-26T07:14:27;12.30;99.90
32334;DHT22;18810;53.040;8.850;2023-04-26T07:16:53;12.60;99.90
32334;DHT22;18810;53.040;8.850;2023-04-26T07:19:18;12.40;99.90
32334;DHT22;18810;53.040;8.850;2023-04-26T07:21:44;12.40;99.90
32334;DHT22;18810;53.040;8.850;2023-04-26T07:24:10;12.60;99.90
32334;DHT22;18810;53.040;8.850;2023-04-26T07:26:37;12.40;99.90
32334;DHT22;18810;53.040;8.850;2023-04-26T07:29:03;12.20;99.90
32334;DHT22;18810;53.040;8.850;2023-04-26T07:31:30;12.10;99.90
32334;DHT22;18810;53.040;8.850;2023-04-26T07:33:56;11.90;99.90
32334;DHT22;18810;53.040;8.850;2023-04-26T07:36:22;12.40;99.90
32334;DHT22;18810;53.040;8.850;2023-04-26T07:38:48;12.70;99.90
32334;DHT22;18810;53.040;8.850;2023-04-26T07:41:13;13.30;99.90
32334;DHT22;18810;53.040;8.850;2023-04-26T07:43:40;13.40;99.40
32334;DHT22;18810;53.040;8.850;2023-04-26T07:46:06;13.30;99.60
32334;DHT22;18810;53.040;8.850;2023-04-26T07:48:32;13.20;99.50
32334;DHT22;18810;53.040;8.850;2023-04-26T07:51:06;12.20;99.90
32334;DHT22;18810;53.040;8.850;2023-04-26T07:53:32;12.40;99.90
32334;DHT22;18810;53.040;8.850;2023-04-26T07:55:58;12.40;99.90
32334;DHT22;18810;53.040;8.850;2023-04-26T07:58:24;12.80;99.70
32334;DHT22;18810;53.040;8.850;2023-04-26T08:00:49;12.70;99.80
32334;DHT22;18810;53.040;8.850;2023-04-26T08:03:16;13.40;99.60
32334;DHT22;18810;53.040;8.850;2023-04-26T08:05:42;12.90;99.10
32334;DHT22;18810;53.040;8.850;2023-04-26T08:08:08;12.10;99.80
32334;DHT22;18810;53.040;8.850;2023-04-26T08:10:34;11.60;99.90
32334;DHT22;18810;53.040;8.850;2023-04-26T08:12:59;11.50;99.90
32334;DHT22;18810;53.040;8.850;2023-04-26T08:15:27;11.40;99.90
32334;DHT22;18810;53.040;8.850;2023-04-26T08:17:53;11.40;99.90
32334;DHT22;18810;53.040;8.850;2023-04-26T08:20:19;11.00;99.90
32334;DHT22;18810;53.040;8.850;2023-04-26T08:22:45;10.50;99.90
32334;DHT22;18810;53.040;8.850;2023-04-26T08:25:11;10.50;99.90
32334;DHT22;18810;53.040;8.850;2023-04-26T08:27:36;10.40;99.90
32334;DHT22;18810;53.040;8.850;2023-04-26T08:30:03;10.60;99.90
32334;DHT22;18810;53.040;8.850;2023-04-26T08:32:29;10.70;99.90
32334;DHT22;18810;53.040;8.850;2023-04-26T08:34:55;10.90;99.90
32334;DHT22;18810;53.040;8.850;2023-04-26T08:37:20;11.10;99.90
32334;DHT22;18810;53.040;8.850;2023-04-26T08:39:49;11.50;99.90
32334;DHT22;18810;53.040;8.850;2023-04-26T08:42:16;11.70;99.90
32334;DHT22;18810;53.040;8.850;2023-04-26T08:44:43;12.30;99.90
32334;DHT22;18810;53.040;8.850;2023-04-26T08:47:16;11.80;98.50
32334;DHT22;18810;53.040;8.850;2023-04-26T08:49:44;11.30;99.60
32334;DHT22;18810;53.040;8.850;2023-04-26T08:52:12;11.30;99.40
32334;DHT22;18810;53.040;8.850;2023-04-26T08:54:40;11.60;99.00
32334;DHT22;18810;53.040;8.850;2023-04-26T08:57:07;11.40;97.30
32334;DHT22;18810;53.040;8.850;2023-04-26T08:59:35;11.10;97.50
32334;DHT22;18810;53.040;8.850;2023-04-26T09:02:03;10.60;98.90
32334;DHT22;18810;53.040;8.850;2023-04-26T09:04:29;10.40;99.50
32334;DHT22;18810;53.040;8.850;2023-04-26T09:07:00;10.20;99.70
32334;DHT22;18810;53.040;8.850;2023-04-26T09:09:27;10.30;99.80
32334;DHT22;18810;53.040;8.850;2023-04-26T09:11:59;10.30;99.90
32334;DHT22;18810;53.040;8.850;2023-04-26T09:14:26;10.50;99.90
32334;DHT22;18810;53.040;8.850;2023-04-26T09:16:53;10.60;99.90
32334;DHT22;18810;53.040;8.850;2023-04-26T09:19:37;10.80;99.80
32334;DHT22;18810;53.040;8.850;2023-04-26T09:22:04;10.90;99.90
32334;DHT22;18810;53.040;8.850;2023-04-26T09:24:48;11.30;99.60
32334;DHT22;18810;53.040;8.850;2023-04-26T09:27:15;11.90;99.00
32334;DHT22;18810;53.040;8.850;2023-04-26T09:30:06;11.90;98.00
32334;DHT22;18810;53.040;8.850;2023-04-26T09:32:42;11.60;98.30
32334;DHT22;18810;53.040;8.850;2023-04-26T09:35:07;10.90;98.80
32334;DHT22;18810;53.040;8.850;2023-04-26T09:37:33;10.40;99.70
32334;DHT22;18810;53.040;8.850;2023-04-26T09:39:59;10.00;99.90
32334;DHT22;18810;53.040;8.850;2023-04-26T09:42:24;9.90;99.90
32334;DHT22;18810;53.040;8.850;2023-04-26T09:44:50;9.80;99.90
32334;DHT22;18810;53.040;8.850;2023-04-26T09:47:21;9.60;99.90
32334;DHT22;18810;53.040;8.850;2023-04-26T09:49:47;9.50;99.90
32334;DHT22;18810;53.040;8.850;2023-04-26T09:52:15;9.30;99.90
32334;DHT22;18810;53.040;8.850;2023-04-26T09:54:44;9.40;99.90
32334;DHT22;18810;53.040;8.850;2023-04-26T09:57:11;9.40;99.90
32334;DHT22;18810;53.040;8.850;2023-04-26T09:59:50;9.50;99.90
32334;DHT22;18810;53.040;8.850;2023-04-26T10:04:51;9.90;99.90
32334;DHT22;18810;53.040;8.850;2023-04-26T10:07:20;10.00;99.90
32334;DHT22;18810;53.040;8.850;2023-04-26T10:09:46;9.90;99.90
32334;DHT22;18810;53.040;8.850;2023-04-26T10:12:17;9.60;99.90
32334;DHT22;18810;53.040;8.850;2023-04-26T10:14:43;9.30;99.90
32334;DHT22;18810;53.040;8.850;2023-04-26T10:17:11;9.30;99.90
32334;DHT22;18810;53.040;8.850;2023-04-26T10:19:40;9.40;99.90
32334;DHT22;18810;53.040;8.850;2023-04-26T10:22:14;9.60;99.90
32334;DHT22;18810;53.040;8.850;2023-04-26T10:24:42;10.00;99.90
32334;DHT22;18810;53.040;8.850;2023-04-26T10:27:08;10.50;99.90
32334;DHT22;18810;53.040;8.850;2023-04-26T10:30:07;11.10;99.90
32334;DHT22;18810;53.040;8.850;2023-04-26T10:35:26;12.20;99.90
32334;DHT22;18810;53.040;8.850;2023-04-26T10:40:30;12.60;99.80
32334;DHT22;18810;53.040;8.850;2023-04-26T10:45:37;12.90;97.90
32334;DHT22;18810;53.040;8.850;2023-04-26T10:59:13;12.60;98.10
32334;DHT22;18810;53.040;8.850;2023-04-26T11:01:39;11.80;99.00
32334;DHT22;18810;53.040;8.850;2023-04-26T11:04:09;11.50;99.90
32334;DHT22;18810;53.040;8.850;2023-04-26T11:06:52;10.90;99.90
32334;DHT22;18810;53.040;8.850;2023-04-26T11:09:37;9.80;99.90
32334;DHT22;18810;53.040;8.850;2023-04-26T11:12:12;9.40;99.90
32334;DHT22;18810;53.040;8.850;2023-04-26T11:14:40;9.60;99.90
32334;DHT22;18810;53.040;8.850;2023-04-26T11:17:06;9.90;99.90
32334;DHT22;18810;53.040;8.850;2023-04-26T11:19:33;10.40;99.90
32334;DHT22;18810;53.040;8.850;2023-04-26T11:21:59;11.00;99.90
32334;DHT22;18810;53.040;8.850;2023-04-26T11:24:26;11.20;99.90
32334;DHT22;18810;53.040;8.850;2023-04-26T11:26:53;11.50;99.90
32334;DHT22;18810;53.040;8.850;2023-04-26T11:29:19;12.60;99.90
32334;DHT22;18810;53.040;8.850;2023-04-26T11:31:55;12.50;99.90
32334;DHT22;18810;53.040;8.850;2023-04-26T11:34:29;13.00;99.90
32334;DHT22;18810;53.040;8.850;2023-04-26T11:36:55;13.10;99.10
32334;DHT22;18810;53.040;8.850;2023-04-26T11:39:21;13.10;99.10
32334;DHT22;18810;53.040;8.850;2023-04-26T11:41:47;13.10;99.20
32334;DHT22;18810;53.040;8.850;2023-04-26T11:44:17;13.20;98.90
32334;DHT22;18810;53.040;8.850;2023-04-26T11:46:43;13.00;99.50
32334;DHT22;18810;53.040;8.850;2023-04-26T11:49:10;13.20;99.50
32334;DHT22;18810;53.040;8.850;2023-04-26T11:51:36;13.60;98.30
32334;DHT22;18810;53.040;8.850;2023-04-26T11:54:01;13.70;98.40
32334;DHT22;18810;53.040;8.850;2023-04-26T11:56:27;13.30;97.90
32334;DHT22;18810;53.040;8.850;2023-04-26T11:58:53;13.30;98.80
32334;DHT22;18810;53.040;8.850;2023-04-26T12:01:26;13.40;97.60
32334;DHT22;18810;53.040;8.850;2023-04-26T12:03:54;13.90;97.90
32334;DHT22;18810;53.040;8.850;2023-04-26T12:06:24;14.60;95.60
32334;DHT22;18810;53.040;8.850;2023-04-26T12:08:51;14.30;93.90
32334;DHT22;18810;53.040;8.850;2023-04-26T12:11:17;13.90;94.30
32334;DHT22;18810;53.040;8.850;2023-04-26T12:13:45;13.50;95.40
32334;DHT22;18810;53.040;8.850;2023-04-26T12:16:12;12.90;96.60
32334;DHT22;18810;53.040;8.850;2023-04-26T12:18:38;11.90;99.90
32334;DHT22;18810;53.040;8.850;2023-04-26T12:21:03;11.00;99.90
32334;DHT22;18810;53.040;8.850;2023-04-26T12:23:39;10.30;99.90
32334;DHT22;18810;53.040;8.850;2023-04-26T12:26:05;9.80;99.90
32334;DHT22;18810;53.040;8.850;2023-04-26T12:28:31;9.60;99.90
32334;DHT22;18810;53.040;8.850;2023-04-26T12:30:57;9.70;99.90
32334;DHT22;18810;53.040;8.850;2023-04-26T12:33:23;9.90;99.90
32334;DHT22;18810;53.040;8.850;2023-04-26T12:35:50;9.80;99.90
32334;DHT22;18810;53.040;8.850;2023-04-26T12:38:16;9.60;99.90
32334;DHT22;18810;53.040;8.850;2023-04-26T12:40:42;9.60;99.90
32334;DHT22;18810;53.040;8.850;2023-04-26T12:43:08;9.30;99.90
32334;DHT22;18810;53.040;8.850;2023-04-26T12:45:34;9.30;99.90
32334;DHT22;18810;53.040;8.850;2023-04-26T12:48:00;9.40;99.90
32334;DHT22;18810;53.040;8.850;2023-04-26T12:50:25;9.50;99.90
32334;DHT22;18810;53.040;8.850;2023-04-26T12:52:52;9.70;99.90
32334;DHT22;18810;53.040;8.850;2023-04-26T12:55:19;10.00;99.90
32334;DHT22;18810;53.040;8.850;2023-04-26T12:57:45;10.20;99.90
32334;DHT22;18810;53.040;8.850;2023-04-26T13:00:15;11.20;99.90
32334;DHT22;18810;53.040;8.850;2023-04-26T13:02:42;11.10;99.90
32334;DHT22;18810;53.040;8.850;2023-04-26T13:05:08;11.40;99.50
32334;DHT22;18810;53.040;8.850;2023-04-26T13:07:36;11.60;99.30
32334;DHT22;18810;53.040;8.850;2023-04-26T13:10:04;12.90;97.50
32334;DHT22;18810;53.040;8.850;2023-04-26T13:12:30;13.00;97.60
32334;DHT22;18810;53.040;8.850;2023-04-26T13:14:56;13.50;96.60
32334;DHT22;18810;53.040;8.850;2023-04-26T13:17:24;13.50;96.60
32334;DHT22;18810;53.040;8.850;2023-04-26T13:19:51;13.40;96.00
32334;DHT22;18810;53.040;8.850;2023-04-26T13:22:20;13.30;96.00
32334;DHT22;18810;53.040;8.850;2023-04-26T13:24:45;12.90;96.50
32334;DHT22;18810;53.040;8.850;2023-04-26T13:27:11;12.70;97.00
32334;DHT22;18810;53.040;8.850;2023-04-26T13:29:38;12.10;98.40
32334;DHT22;18810;53.040;8.850;2023-04-26T13:32:04;11.50;99.10
32334;DHT22;18810;53.040;8.850;2023-04-26T13:34:30;11.10;99.80
32334;DHT22;18810;53.040;8.850;2023-04-26T13:36:56;10.90;99.60
32334;DHT22;18810;53.040;8.850;2023-04-26T13:39:23;11.10;99.50
32334;DHT22;18810;53.040;8.850;2023-04-26T13:41:49;11.40;99.90
32334;DHT22;18810;53.040;8.850;2023-04-26T13:44:15;11.70;99.20
32334;DHT22;18810;53.040;8.850;2023-04-26T13:46:41;12.00;99.60
32334;DHT22;18810;53.040;8.850;2023-04-26T13:49:07;11.90;98.60
32334;DHT22;18810;53.040;8.850;2023-04-26T13:51:34;12.20;98.50
32334;DHT22;18810;53.040;8.850;2023-04-26T13:54:02;12.70;98.50
32334;DHT22;18810;53.040;8.850;2023-04-26T13:56:27;13.10;97.00
32334;DHT22;18810;53.040;8.850;2023-04-26T13:58:54;13.70;96.70
32334;DHT22;18810;53.040;8.850;2023-04-26T14:01:22;13.90;95.90
32334;DHT22;18810;53.040;8.850;2023-04-26T14:03:48;13.60;95.70
32334;DHT22;18810;53.040;8.850;2023-04-26T14:06:13;13.00;96.50
32334;DHT22;18810;53.040;8.850;2023-04-26T14:08:39;12.80;96.60
32334;DHT22;18810;53.040;8.850;2023-04-26T14:11:05;12.70;96.20
32334;DHT22;18810;53.040;8.850;2023-04-26T14:13:33;12.00;96.80
32334;DHT22;18810;53.040;8.850;2023-04-26T14:18:28;11.40;97.50
32334;DHT22;18810;53.040;8.850;2023-04-26T14:20:54;11.30;98.10
32334;DHT22;18810;53.040;8.850;2023-04-26T14:23:19;11.20;98.20
32334;DHT22;18810;53.040;8.850;2023-04-26T14:25:45;11.20;98.50
32334;DHT22;18810;53.040;8.850;2023-04-26T14:28:11;10.90;99.40
32334;DHT22;18810;53.040;8.850;2023-04-26T14:30:37;10.90;98.70
32334;DHT22;18810;53.040;8.850;2023-04-26T14:33:02;10.80;98.70
32334;DHT22;18810;53.040;8.850;2023-04-26T14:35:28;10.90;98.80
32334;DHT22;18810;53.040;8.850;2023-04-26T14:37:54;11.00;98.90
32334;DHT22;18810;53.040;8.850;2023-04-26T14:40:19;11.00;98.20
32334;DHT22;18810;53.040;8.850;2023-04-26T14:42:45;10.90;98.10
32334;DHT22;18810;53.040;8.850;2023-04-26T14:45:11;10.90;97.90
32334;DHT22;18810;53.040;8.850;2023-04-26T14:47:37;11.00;98.20
32334;DHT22;18810;53.040;8.850;2023-04-26T14:50:03;12.80;98.70
32334;DHT22;18810;53.040;8.850;2023-04-26T14:52:29;11.30;98.00
32334;DHT22;18810;53.040;8.850;2023-04-26T14:54:58;11.40;98.10
32334;DHT22;18810;53.040;8.850;2023-04-26T14:57:23;11.20;98.20
32334;DHT22;18810;53.040;8.850;2023-04-26T14:59:49;11.10;98.50
32334;DHT22;18810;53.040;8.850;2023-04-26T15:02:15;11.30;98.40
32334;DHT22;18810;53.040;8.850;2023-04-26T15:04:40;11.30;98.50
32334;DHT22;18810;53.040;8.850;2023-04-26T15:07:06;11.30;98.20
32334;DHT22;18810;53.040;8.850;2023-04-26T15:09:32;11.10;98.30
32334;DHT22;18810;53.040;8.850;2023-04-26T15:11:57;11.10;98.10
32334;DHT22;18810;53.040;8.850;2023-04-26T15:14:23;11.10;98.70
32334;DHT22;18810;53.040;8.850;2023-04-26T15:16:49;10.90;99.10
32334;DHT22;18810;53.040;8.850;2023-04-26T15:19:14;10.90;99.90
32334;DHT22;18810;53.040;8.850;2023-04-26T15:21:41;10.90;99.90
32334;DHT22;18810;53.040;8.850;2023-04-26T15:24:07;10.60;99.90
32334;DHT22;18810;53.040;8.850;2023-04-26T15:26:32;10.60;99.90
32334;DHT22;18810;53.040;8.850;2023-04-26T15:28:58;10.60;99.90
32334;DHT22;18810;53.040;8.850;2023-04-26T15:31:24;10.70;99.90
32334;DHT22;18810;53.040;8.850;2023-04-26T15:33:49;10.70;99.90
32334;DHT22;18810;53.040;8.850;2023-04-26T15:36:15;10.60;99.90
32334;DHT22;18810;53.040;8.850;2023-04-26T15:38:41;10.50;99.90
32334;DHT22;18810;53.040;8.850;2023-04-26T15:41:09;10.50;99.90
32334;DHT22;18810;53.040;8.850;2023-04-26T15:43:35;10.40;99.90
32334;DHT22;18810;53.040;8.850;2023-04-26T15:46:00;10.30;99.90
32334;DHT22;18810;53.040;8.850;2023-04-26T15:48:26;10.20;99.90
32334;DHT22;18810;53.040;8.850;2023-04-26T15:50:52;10.30;99.90
32334;DHT22;18810;53.040;8.850;2023-04-26T15:53:21;10.30;99.90
32334;DHT22;18810;53.040;8.850;2023-04-26T15:55:48;10.40;99.90
32334;DHT22;18810;53.040;8.850;2023-04-26T15:58:14;10.50;99.90
32334;DHT22;18810;53.040;8.850;2023-04-26T16:00:39;10.50;99.90
32334;DHT22;18810;53.040;8.850;2023-04-26T16:03:05;10.40;99.90
32334;DHT22;18810;53.040;8.850;2023-04-26T16:05:31;10.20;99.90
32334;DHT22;18810;53.040;8.850;2023-04-26T16:07:57;10.10;99.90
32334;DHT22;18810;53.040;8.850;2023-04-26T16:10:24;10.10;99.90
32334;DHT22;18810;53.040;8.850;2023-04-26T16:12:50;10.20;99.90
32334;DHT22;18810;53.040;8.850;2023-04-26T16:15:16;10.20;99.90
32334;DHT22;18810;53.040;8.850;2023-04-26T16:17:41;10.20;99.90
32334;DHT22;18810;53.040;8.850;2023-04-26T16:20:07;9.70;99.90
32334;DHT22;18810;53.040;8.850;2023-04-26T16:22:35;9.80;99.90
32334;DHT22;18810;53.040;8.850;2023-04-26T16:25:01;9.70;99.90
32334;DHT22;18810;53.040;8.850;2023-04-26T16:27:28;9.40;99.90
32334;DHT22;18810;53.040;8.850;2023-04-26T16:29:54;9.40;99.90
32334;DHT22;18810;53.040;8.850;2023-04-26T16:32:20;9.40;99.90
32334;DHT22;18810;53.040;8.850;2023-04-26T16:34:46;9.30;99.90
32334;DHT22;18810;53.040;8.850;2023-04-26T16:37:12;9.40;99.90
32334;DHT22;18810;53.040;8.850;2023-04-26T16:39:37;9.50;99.90
32334;DHT22;18810;53.040;8.850;2023-04-26T16:42:03;9.60;99.90
32334;DHT22;18810;53.040;8.850;2023-04-26T16:44:29;9.70;99.90
32334;DHT22;18810;53.040;8.850;2023-04-26T16:46:55;9.70;99.90
32334;DHT22;18810;53.040;8.850;2023-04-26T16:49:21;9.80;99.90
32334;DHT22;18810;53.040;8.850;2023-04-26T16:51:46;9.70;99.90
32334;DHT22;18810;53.040;8.850;2023-04-26T16:54:18;9.80;99.90
32334;DHT22;18810;53.040;8.850;2023-04-26T16:56:43;9.80;99.90